createdAt,value
2017-11-15T00:02:16.138Z,100296.53
2017-11-15T00:08:19.634Z,100296.78
2017-11-15T00:14:23.393Z,100305.48
2017-11-15T00:20:26.882Z,100300.91
2017-11-15T00:26:30.329Z,100305.74
2017-11-15T00:32:33.813Z,100309.41
2017-11-15T00:38:37.273Z,100315.08
2017-11-15T00:44:40.741Z,100317.03
2017-11-15T00:50:44.210Z,100311.78
2017-11-15T00:56:47.684Z,100319.48
2017-11-15T01:02:51.206Z,100324.53
2017-11-15T01:08:54.690Z,100322.16
2017-11-15T01:14:58.932Z,100314.00
2017-11-15T01:21:02.414Z,100316.62
2017-11-15T01:27:05.890Z,100312.75
2017-11-15T01:33:09.383Z,100314.83
2017-11-15T01:39:13.211Z,100317.08
2017-11-15T01:45:16.680Z,100312.25
2017-11-15T01:51:20.149Z,100312.20
2017-11-15T01:57:23.612Z,100321.91
2017-11-15T02:03:27.452Z,100317.08
2017-11-15T02:09:31.092Z,100316.12
2017-11-15T02:15:34.833Z,100324.44
2017-11-15T02:21:38.617Z,100326.19
2017-11-15T02:27:42.080Z,100319.97
2017-11-15T02:33:45.791Z,100314.81
2017-11-15T02:39:49.249Z,100310.14
2017-11-15T02:45:52.738Z,100304.48
2017-11-15T02:51:56.261Z,100296.06
2017-11-15T02:57:59.773Z,100298.73
2017-11-15T03:04:04.821Z,100299.30
2017-11-15T03:10:08.580Z,100304.48
2017-11-15T03:16:12.067Z,100299.58
2017-11-15T03:22:16.299Z,100300.88
2017-11-15T03:28:19.792Z,100306.49
2017-11-15T03:34:23.283Z,100306.99
2017-11-15T03:40:27.099Z,100298.32
2017-11-15T03:46:30.579Z,100296.62
2017-11-15T03:52:34.058Z,100296.95
2017-11-15T03:58:38.283Z,100297.66
2017-11-15T04:04:41.785Z,100295.61
2017-11-15T04:10:45.266Z,100304.77
2017-11-15T04:16:49.833Z,100302.16
2017-11-15T04:22:53.567Z,100307.91
2017-11-15T04:28:57.039Z,100305.97
2017-11-15T04:35:00.526Z,100300.86
2017-11-15T04:41:03.998Z,100299.16
2017-11-15T04:47:08.568Z,100307.12
2017-11-15T04:53:12.046Z,100308.37
2017-11-15T04:59:15.509Z,100306.81
2017-11-15T05:05:19.713Z,100303.39
2017-11-15T05:11:23.468Z,100306.58
2017-11-15T05:17:27.275Z,100315.27
2017-11-15T05:23:30.735Z,100315.02
2017-11-15T05:29:34.983Z,100315.43
2017-11-15T05:35:38.433Z,100328.25
2017-11-15T05:41:41.916Z,100314.91
2017-11-15T05:47:45.377Z,100323.06
2017-11-15T05:53:49.136Z,100333.85
2017-11-15T05:59:52.615Z,100332.20
2017-11-15T06:05:56.453Z,100332.48
2017-11-15T06:11:59.940Z,100352.40
2017-11-15T06:18:03.960Z,100345.11
2017-11-15T06:24:07.521Z,100356.34
2017-11-15T06:30:10.823Z,100352.71
2017-11-15T06:36:14.686Z,100373.06
2017-11-15T06:42:18.140Z,100373.25
2017-11-15T06:48:21.612Z,100386.44
2017-11-15T06:54:25.067Z,100381.30
2017-11-15T07:00:29.369Z,100383.25
2017-11-15T07:06:33.719Z,100390.55
2017-11-15T07:12:37.179Z,100397.94
2017-11-15T07:18:41.427Z,100396.90
2017-11-15T07:24:44.882Z,100391.17
2017-11-15T07:30:48.696Z,100395.91
2017-11-15T07:36:52.284Z,100404.42
2017-11-15T07:42:55.904Z,100403.98
2017-11-15T07:48:59.367Z,100399.45
2017-11-15T07:55:02.978Z,100406.23
2017-11-15T08:01:06.568Z,100402.08
2017-11-15T08:07:10.881Z,100403.37
2017-11-15T08:13:14.419Z,100411.81
2017-11-15T08:19:17.977Z,100418.73
2017-11-15T08:25:22.284Z,100414.18
2017-11-15T08:31:26.525Z,100431.30
2017-11-15T08:37:30.783Z,100428.96
2017-11-15T08:43:34.234Z,100436.67
2017-11-15T08:49:37.709Z,100438.84
2017-11-15T08:55:41.937Z,100437.97
2017-11-15T09:01:45.393Z,100432.88
2017-11-15T09:07:49.629Z,100437.65
2017-11-15T09:13:53.432Z,100429.98
2017-11-15T09:19:56.937Z,100429.35
2017-11-15T09:26:00.419Z,100437.91
2017-11-15T09:32:03.962Z,100441.92
2017-11-15T09:38:07.419Z,100448.41
2017-11-15T09:44:11.648Z,100441.45
2017-11-15T09:50:15.084Z,100443.61
2017-11-15T09:56:18.851Z,100447.33
2017-11-15T10:02:22.327Z,100447.63
2017-11-15T10:08:26.114Z,100449.88
2017-11-15T10:14:29.636Z,100460.37
2017-11-15T10:20:33.126Z,100461.07
2017-11-15T10:26:36.741Z,100454.59
2017-11-15T10:32:40.296Z,100450.70
2017-11-15T10:38:44.969Z,100453.48
2017-11-15T10:44:48.423Z,100451.09
2017-11-15T10:50:52.264Z,100454.92
2017-11-15T10:56:55.722Z,100447.81
2017-11-15T11:02:59.179Z,100449.33
2017-11-15T11:09:03.013Z,100458.60
2017-11-15T11:15:06.482Z,100456.55
2017-11-15T11:21:10.885Z,100444.25
2017-11-15T11:27:14.346Z,100447.68
2017-11-15T11:33:17.818Z,100448.73
2017-11-15T11:39:22.041Z,100448.84
2017-11-15T11:45:25.511Z,100451.39
2017-11-15T11:51:28.963Z,100446.02
2017-11-15T11:57:33.438Z,100446.58
2017-11-15T12:03:36.912Z,100440.51
2017-11-15T12:09:40.716Z,100428.05
2017-11-15T12:15:44.182Z,100427.30
2017-11-15T12:21:47.643Z,100424.57
2017-11-15T12:27:51.476Z,100413.66
2017-11-15T12:33:54.939Z,100412.83
2017-11-15T12:39:58.739Z,100416.67
2017-11-15T12:46:02.889Z,100399.11
2017-11-15T12:52:07.143Z,100400.78
2017-11-15T12:58:10.593Z,100399.66
2017-11-15T13:04:14.834Z,100391.52
2017-11-15T13:10:18.626Z,100392.52
2017-11-15T13:16:22.127Z,100387.11
2017-11-15T13:22:25.613Z,100395.59
2017-11-15T13:28:29.094Z,100396.13
2017-11-15T13:34:32.860Z,100383.66
2017-11-15T13:40:36.328Z,100390.45
2017-11-15T13:46:40.151Z,100389.56
2017-11-15T13:58:54.906Z,100387.03
2017-11-15T14:04:58.372Z,100378.75
2017-11-15T14:11:01.863Z,100382.09
2017-11-15T14:17:05.391Z,100381.60
2017-11-15T14:23:09.630Z,100384.20
2017-11-15T14:29:13.112Z,100387.27
2017-11-15T14:35:16.579Z,100391.59
2017-11-15T14:41:20.044Z,100389.11
2017-11-15T14:47:24.257Z,100382.72
2017-11-15T14:53:28.495Z,100401.12
2017-11-15T14:59:31.958Z,100395.31
2017-11-15T15:05:35.433Z,100399.98
2017-11-15T15:11:38.926Z,100399.48
2017-11-15T15:17:42.383Z,100403.56
2017-11-15T15:23:46.629Z,100398.18
2017-11-15T15:29:50.071Z,100398.18
2017-11-15T15:35:54.307Z,100399.66
2017-11-15T15:41:57.767Z,100407.14
2017-11-15T15:48:01.513Z,100397.61
2017-11-15T15:54:05.006Z,100405.59
2017-11-15T16:00:08.779Z,100396.92
2017-11-15T16:06:12.302Z,100403.75
2017-11-15T16:12:16.866Z,100404.53
2017-11-15T16:18:20.345Z,100415.59
2017-11-15T16:24:23.815Z,100416.16
2017-11-15T16:30:27.317Z,100426.02
2017-11-15T16:36:30.792Z,100418.72
2017-11-15T16:42:34.270Z,100425.15
2017-11-15T16:48:37.739Z,100428.38
2017-11-15T16:54:41.563Z,100427.07
2017-11-15T17:00:45.016Z,100424.78
2017-11-15T17:06:48.509Z,100421.03
2017-11-15T17:12:52.053Z,100421.17
2017-11-15T17:18:56.313Z,100424.53
2017-11-15T17:24:59.795Z,100426.02
2017-11-15T17:31:03.287Z,100423.73
2017-11-15T17:37:07.018Z,100430.59
2017-11-15T17:43:11.248Z,100433.69
2017-11-15T17:49:14.697Z,100436.52
2017-11-15T17:55:18.149Z,100425.25
2017-11-15T18:01:21.611Z,100438.38
2017-11-15T18:07:25.069Z,100438.05
2017-11-15T18:13:29.618Z,100432.52
2017-11-15T18:19:33.166Z,100436.34
2017-11-15T18:25:37.390Z,100433.93
2017-11-15T18:31:40.879Z,100431.67
2017-11-15T18:37:44.344Z,100429.92
2017-11-15T18:43:47.798Z,100432.47
2017-11-15T18:49:52.038Z,100439.52
2017-11-15T18:55:55.577Z,100446.73
2017-11-15T19:01:59.823Z,100443.20
2017-11-15T19:08:03.307Z,100445.91
2017-11-15T19:14:06.783Z,100445.61
2017-11-15T19:20:10.251Z,100447.70
2017-11-15T19:26:14.491Z,100448.95
2017-11-15T19:32:17.961Z,100451.83
2017-11-15T19:38:21.483Z,100450.41
2017-11-15T19:44:24.955Z,100459.14
2017-11-15T19:50:28.468Z,100461.72
2017-11-15T19:56:31.961Z,100460.19
2017-11-15T20:02:36.227Z,100457.59
2017-11-15T20:08:39.704Z,100452.51
2017-11-15T20:14:43.181Z,100453.51
2017-11-15T20:20:46.651Z,100450.37
2017-11-15T20:26:50.108Z,100445.25
2017-11-15T20:32:54.368Z,100446.13
2017-11-15T20:38:57.846Z,100444.46
2017-11-15T20:45:01.303Z,100454.73
2017-11-15T20:51:04.767Z,100449.80
2017-11-15T20:57:09.034Z,100443.38
2017-11-15T21:03:12.498Z,100439.16
2017-11-15T21:09:16.068Z,100455.58
2017-11-15T21:15:19.557Z,100454.00
2017-11-15T21:21:23.032Z,100455.55
2017-11-15T21:27:26.635Z,100447.22
2017-11-15T21:33:30.104Z,100451.80
2017-11-15T21:39:33.595Z,100439.11
2017-11-15T21:45:37.060Z,100437.66
2017-11-15T21:51:40.558Z,100437.66
2017-11-15T21:57:44.025Z,100426.86
2017-11-15T22:03:47.509Z,100420.72
2017-11-15T22:09:50.979Z,100441.45
2017-11-15T22:15:55.207Z,100440.91
2017-11-15T22:21:58.735Z,100445.83
2017-11-15T22:28:02.213Z,100451.76
2017-11-15T22:34:05.697Z,100446.70
2017-11-15T22:40:09.162Z,100446.84
2017-11-15T22:46:12.632Z,100439.91
2017-11-15T22:52:16.090Z,100450.16
2017-11-15T22:58:20.330Z,100449.04
2017-11-15T23:04:23.897Z,100443.70
2017-11-15T23:10:27.387Z,100441.70
2017-11-15T23:16:31.067Z,100439.19
2017-11-15T23:22:34.533Z,100430.64
2017-11-15T23:28:38.814Z,100432.15
2017-11-15T23:34:42.395Z,100434.40
2017-11-15T23:40:45.867Z,100428.80
2017-11-15T23:46:49.337Z,100418.62
2017-11-15T23:52:52.819Z,100410.47
2017-11-15T23:58:56.413Z,100404.04
